Terminal Aerodrome Forecast
Issued by NWS Pocatello, ID

Current Version | Previous Version | Text Only | Print | Product List | Glossary On
Versions: 1 2 3 4 5 6 7 8 9 10 11 12 13 14 15 16 17 18 19 20 21
000
FTUS45 KPIH 241124
TAFIDA
TAF
KIDA 241124Z 2412/2512 35009KT P6SM SCT015 BKN060
     FM241700 35010G20KT P6SM VCSH SCT040 OVC070
     FM250400 22008KT P6SM SCT040 OVC080
     FM250800 21007KT P6SM SCT020=

USA.gov is the U.S. government's official web portal to all federal, state and local government web resources and services.